Time,TemperatureF,DewpointF,PressureIn,WindDirection,WindDirectionDegrees,WindSpeedMPH,WindSpeedGustMPH,Humidity,HourlyPrecipIn,Conditions,Clouds,dailyrainin,SoftwareType,DateUTC
2013-02-01 00:00:00,48.2,29.9,30.17,North,0,0.0,0.0,49,0.00,,,0.00,WUHU216HW,2013-02-01 08:00:00,
2013-02-01 00:05:00,48.2,29.9,30.17,North,0,0.0,0.0,49,0.00,,,0.00,WUHU216HW,2013-02-01 08:05:00,
2013-02-01 00:30:00,47.7,28.9,30.18,North,0,0.0,0.0,48,0.00,,,0.00,WUHU216HW,2013-02-01 08:30:00,
2013-02-01 00:35:00,47.7,28.9,30.18,North,0,0.0,0.0,48,0.00,,,0.00,WUHU216HW,2013-02-01 08:35:00,
2013-02-01 01:00:00,48.6,29.2,30.17,North,0,0.0,0.0,47,0.00,,,0.00,WUHU216HW,2013-02-01 09:00:00,
2013-02-01 01:05:00,48.6,29.2,30.17,North,0,0.0,0.0,47,0.00,,,0.00,WUHU216HW,2013-02-01 09:05:00,
2013-02-01 01:30:00,48.2,28.8,30.17,North,0,0.0,0.0,47,0.00,,,0.00,WUHU216HW,2013-02-01 09:30:00,
2013-02-01 01:35:00,48.2,28.8,30.17,North,0,0.0,0.0,47,0.00,,,0.00,WUHU216HW,2013-02-01 09:35:00,
2013-02-01 02:00:00,48.2,28.8,30.17,North,0,0.0,0.0,47,0.00,,,0.00,WUHU216HW,2013-02-01 10:00:00,
2013-02-01 02:05:00,48.2,28.8,30.17,North,0,0.0,0.0,47,0.00,,,0.00,WUHU216HW,2013-02-01 10:05:00,
2013-02-01 02:30:00,47.9,28.4,30.17,North,0,0.0,0.0,47,0.00,,,0.00,WUHU216HW,2013-02-01 10:30:00,
2013-02-01 02:35:00,47.9,28.4,30.17,North,0,0.0,0.0,47,0.00,,,0.00,WUHU216HW,2013-02-01 10:35:00,
2013-02-01 03:00:00,47.0,28.7,30.16,North,0,0.0,0.0,49,0.00,,,0.00,WUHU216HW,2013-02-01 11:00:00,
2013-02-01 03:05:00,47.0,28.7,30.16,North,0,0.0,0.0,49,0.00,,,0.00,WUHU216HW,2013-02-01 11:05:00,
2013-02-01 03:30:00,45.4,28.7,30.17,North,0,0.0,0.0,52,0.00,,,0.00,WUHU216HW,2013-02-01 11:30:00,
2013-02-01 03:35:00,45.4,28.7,30.17,North,0,0.0,0.0,52,0.00,,,0.00,WUHU216HW,2013-02-01 11:35:00,
2013-02-01 04:00:00,44.5,28.4,30.17,North,0,0.0,0.0,53,0.00,,,0.00,WUHU216HW,2013-02-01 12:00:00,
2013-02-01 04:05:00,44.5,28.4,30.17,North,0,0.0,0.0,53,0.00,,,0.00,WUHU216HW,2013-02-01 12:05:00,
2013-02-01 04:30:00,44.1,28.4,30.17,North,0,0.0,0.0,54,0.00,,,0.00,WUHU216HW,2013-02-01 12:30:00,
2013-02-01 04:35:00,44.1,28.4,30.17,North,0,0.0,0.0,54,0.00,,,0.00,WUHU216HW,2013-02-01 12:35:00,
2013-02-01 05:00:00,45.0,28.9,30.16,North,0,0.0,0.0,53,0.00,,,0.00,WUHU216HW,2013-02-01 13:00:00,
2013-02-01 05:05:00,45.0,28.9,30.16,North,0,0.0,0.0,53,0.00,,,0.00,WUHU216HW,2013-02-01 13:05:00,
2013-02-01 05:30:00,44.8,28.7,30.17,North,0,0.0,0.0,53,0.00,,,0.00,WUHU216HW,2013-02-01 13:30:00,
2013-02-01 05:35:00,44.8,28.7,30.17,North,0,0.0,0.0,53,0.00,,,0.00,WUHU216HW,2013-02-01 13:35:00,
2013-02-01 06:00:00,45.9,28.8,30.18,North,0,0.0,0.0,51,0.00,,,0.00,WUHU216HW,2013-02-01 14:00:00,
2013-02-01 06:05:00,45.9,28.8,30.18,North,0,0.0,0.0,51,0.00,,,0.00,WUHU216HW,2013-02-01 14:05:00,
2013-02-01 06:30:00,44.6,28.5,30.18,North,0,0.0,0.0,53,0.00,,,0.00,WUHU216HW,2013-02-01 14:30:00,
2013-02-01 06:35:00,44.6,28.5,30.18,North,0,0.0,0.0,53,0.00,,,0.00,WUHU216HW,2013-02-01 14:35:00,
2013-02-01 07:00:00,44.1,28.0,30.19,North,0,0.0,0.0,53,0.00,,,0.00,WUHU216HW,2013-02-01 15:00:00,
2013-02-01 07:05:00,44.1,28.0,30.19,North,0,0.0,0.0,53,0.00,,,0.00,WUHU216HW,2013-02-01 15:05:00,
2013-02-01 07:30:00,45.0,27.0,30.20,North,0,0.0,0.0,49,0.00,,,0.00,WUHU216HW,2013-02-01 15:30:00,
2013-02-01 07:35:00,45.0,27.0,30.20,North,0,0.0,0.0,49,0.00,,,0.00,WUHU216HW,2013-02-01 15:35:00,
2013-02-01 08:00:00,47.7,27.8,30.20,North,0,0.0,0.0,46,0.00,,,0.00,WUHU216HW,2013-02-01 16:00:00,
2013-02-01 08:05:00,47.7,27.8,30.20,North,0,0.0,0.0,46,0.00,,,0.00,WUHU216HW,2013-02-01 16:05:00,
2013-02-01 08:30:00,49.5,28.9,30.21,North,0,0.0,0.0,45,0.00,,,0.00,WUHU216HW,2013-02-01 16:30:00,
2013-02-01 08:35:00,49.5,28.9,30.21,North,0,0.0,0.0,45,0.00,,,0.00,WUHU216HW,2013-02-01 16:35:00,
2013-02-01 09:00:00,50.6,29.9,30.22,North,0,0.0,0.0,45,0.00,,,0.00,WUHU216HW,2013-02-01 17:00:00,
2013-02-01 09:05:00,50.6,29.9,30.22,North,0,0.0,0.0,45,0.00,,,0.00,WUHU216HW,2013-02-01 17:05:00,
2013-02-01 09:30:00,51.1,30.4,30.22,North,0,0.0,0.0,45,0.00,,,0.00,WUHU216HW,2013-02-01 17:30:00,
2013-02-01 09:35:00,51.1,30.4,30.22,North,0,0.0,0.0,45,0.00,,,0.00,WUHU216HW,2013-02-01 17:35:00,
2013-02-01 10:00:00,52.4,30.4,30.22,North,0,0.0,0.0,43,0.00,,,0.00,WUHU216HW,2013-02-01 18:00:00,
2013-02-01 10:05:00,52.4,30.4,30.22,North,0,0.0,0.0,43,0.00,,,0.00,WUHU216HW,2013-02-01 18:05:00,
2013-02-01 10:30:00,53.6,31.6,30.23,North,0,0.0,0.0,43,0.00,,,0.00,WUHU216HW,2013-02-01 18:30:00,
2013-02-01 10:35:00,53.6,31.6,30.23,North,0,0.0,0.0,43,0.00,,,0.00,WUHU216HW,2013-02-01 18:35:00,
2013-02-01 11:00:00,55.1,32.9,30.21,North,0,0.0,0.0,43,0.00,,,0.00,WUHU216HW,2013-02-01 19:00:00,
2013-02-01 11:05:00,55.1,32.9,30.21,North,0,0.0,0.0,43,0.00,,,0.00,WUHU216HW,2013-02-01 19:05:00,
2013-02-01 11:30:00,56.5,33.6,30.21,North,0,0.0,0.0,42,0.00,,,0.00,WUHU216HW,2013-02-01 19:30:00,
2013-02-01 11:35:00,56.5,33.6,30.21,North,0,0.0,0.0,42,0.00,,,0.00,WUHU216HW,2013-02-01 19:35:00,
2013-02-01 12:00:00,57.4,33.8,30.19,North,0,0.0,0.0,41,0.00,,,0.00,WUHU216HW,2013-02-01 20:00:00,
2013-02-01 12:05:00,57.4,33.8,30.19,North,0,0.0,0.0,41,0.00,,,0.00,WUHU216HW,2013-02-01 20:05:00,
2013-02-01 12:30:00,59.0,34.0,30.18,North,0,0.0,0.0,39,0.00,,,0.00,WUHU216HW,2013-02-01 20:30:00,
2013-02-01 12:35:00,59.0,34.0,30.18,North,0,0.0,0.0,39,0.00,,,0.00,WUHU216HW,2013-02-01 20:35:00,
2013-02-01 13:00:00,59.4,33.7,30.18,North,0,0.0,0.0,38,0.00,,,0.00,WUHU216HW,2013-02-01 21:00:00,
2013-02-01 13:05:00,59.4,33.7,30.18,North,0,0.0,0.0,38,0.00,,,0.00,WUHU216HW,2013-02-01 21:05:00,
2013-02-01 13:30:00,60.1,34.3,30.17,North,0,0.0,0.0,38,0.00,,,0.00,WUHU216HW,2013-02-01 21:30:00,
2013-02-01 13:35:00,60.1,34.3,30.17,North,0,0.0,0.0,38,0.00,,,0.00,WUHU216HW,2013-02-01 21:35:00,
2013-02-01 14:00:00,60.3,33.8,30.16,North,0,0.0,0.0,37,0.00,,,0.00,WUHU216HW,2013-02-01 22:00:00,
2013-02-01 14:05:00,60.3,33.8,30.16,North,0,0.0,0.0,37,0.00,,,0.00,WUHU216HW,2013-02-01 22:05:00,
2013-02-01 14:30:00,60.1,34.3,30.15,North,0,0.0,0.0,38,0.00,,,0.00,WUHU216HW,2013-02-01 22:30:00,
2013-02-01 14:35:00,60.1,34.3,30.15,North,0,0.0,0.0,38,0.00,,,0.00,WUHU216HW,2013-02-01 22:35:00,
2013-02-01 15:00:00,60.3,34.5,30.16,North,0,0.0,0.0,38,0.00,,,0.00,WUHU216HW,2013-02-01 23:00:00,
2013-02-01 15:05:00,60.3,34.5,30.16,North,0,0.0,0.0,38,0.00,,,0.00,WUHU216HW,2013-02-01 23:05:00,
2013-02-01 15:30:00,59.9,33.4,30.16,North,0,0.0,0.0,37,0.00,,,0.00,WUHU216HW,2013-02-01 23:30:00,
2013-02-01 15:35:00,59.9,33.4,30.16,North,0,0.0,0.0,37,0.00,,,0.00,WUHU216HW,2013-02-01 23:35:00,
2013-02-01 16:00:00,59.8,33.3,30.16,North,0,0.0,0.0,37,0.00,,,0.00,WUHU216HW,2013-02-02 00:00:00,
2013-02-01 16:05:00,59.8,33.3,30.16,North,0,0.0,0.0,37,0.00,,,0.00,WUHU216HW,2013-02-02 00:05:00,
2013-02-01 16:30:00,58.9,33.2,30.15,North,0,0.0,0.0,38,0.00,,,0.00,WUHU216HW,2013-02-02 00:30:00,
2013-02-01 16:35:00,58.9,33.2,30.15,North,0,0.0,0.0,38,0.00,,,0.00,WUHU216HW,2013-02-02 00:35:00,
2013-02-01 17:00:00,58.0,32.4,30.15,North,0,0.0,0.0,38,0.00,,,0.00,WUHU216HW,2013-02-02 01:00:00,
2013-02-01 17:05:00,58.0,32.4,30.15,North,0,0.0,0.0,38,0.00,,,0.00,WUHU216HW,2013-02-02 01:05:00,
2013-02-01 17:30:00,56.5,32.5,30.17,North,0,0.0,0.0,40,0.00,,,0.00,WUHU216HW,2013-02-02 01:30:00,
2013-02-01 17:35:00,56.5,32.5,30.17,North,0,0.0,0.0,40,0.00,,,0.00,WUHU216HW,2013-02-02 01:35:00,
2013-02-01 18:00:00,55.1,32.3,30.17,North,0,0.0,0.0,42,0.00,,,0.00,WUHU216HW,2013-02-02 02:00:00,
2013-02-01 18:05:00,55.1,32.3,30.17,North,0,0.0,0.0,42,0.00,,,0.00,WUHU216HW,2013-02-02 02:05:00,
2013-02-01 18:30:00,53.8,32.3,30.18,North,0,0.0,0.0,44,0.00,,,0.00,WUHU216HW,2013-02-02 02:30:00,
2013-02-01 18:35:00,53.8,32.3,30.18,North,0,0.0,0.0,44,0.00,,,0.00,WUHU216HW,2013-02-02 02:35:00,
2013-02-01 19:00:00,52.7,32.4,30.20,North,0,0.0,0.0,46,0.00,,,0.00,WUHU216HW,2013-02-02 03:00:00,
2013-02-01 19:05:00,52.7,32.4,30.20,North,0,0.0,0.0,46,0.00,,,0.00,WUHU216HW,2013-02-02 03:05:00,
2013-02-01 19:30:00,51.8,32.1,30.20,North,0,0.0,0.0,47,0.00,,,0.00,WUHU216HW,2013-02-02 03:30:00,
2013-02-01 19:35:00,51.8,32.1,30.20,North,0,0.0,0.0,47,0.00,,,0.00,WUHU216HW,2013-02-02 03:35:00,
2013-02-01 20:00:00,51.1,31.0,30.21,North,0,0.0,0.0,46,0.00,,,0.00,WUHU216HW,2013-02-02 04:00:00,
2013-02-01 20:05:00,51.1,31.0,30.21,North,0,0.0,0.0,46,0.00,,,0.00,WUHU216HW,2013-02-02 04:05:00,
2013-02-01 20:30:00,51.1,29.3,30.22,North,0,0.0,0.0,43,0.00,,,0.00,WUHU216HW,2013-02-02 04:30:00,
2013-02-01 20:35:00,51.1,29.3,30.22,North,0,0.0,0.0,43,0.00,,,0.00,WUHU216HW,2013-02-02 04:35:00,
2013-02-01 21:00:00,50.2,29.6,30.22,North,0,0.0,0.0,45,0.00,,,0.00,WUHU216HW,2013-02-02 05:00:00,
2013-02-01 21:01:00,50.2,29.6,30.22,North,0,0.0,0.0,45,0.00,,,0.00,WUHU216HW,2013-02-02 05:01:00,
2013-02-01 21:06:00,50.2,29.6,30.22,North,0,0.0,0.0,45,0.00,,,0.00,WUHU216HW,2013-02-02 05:06:00,
2013-02-01 21:30:00,49.5,29.4,30.23,North,0,0.0,0.0,46,0.00,,,0.00,WUHU216HW,2013-02-02 05:30:00,
2013-02-01 21:35:00,49.5,29.4,30.23,North,0,0.0,0.0,46,0.00,,,0.00,WUHU216HW,2013-02-02 05:35:00,
2013-02-01 22:00:00,49.7,28.5,30.23,North,0,0.0,0.0,44,0.00,,,0.00,WUHU216HW,2013-02-02 06:00:00,
2013-02-01 22:05:00,49.7,28.5,30.23,North,0,0.0,0.0,44,0.00,,,0.00,WUHU216HW,2013-02-02 06:05:00,
2013-02-01 22:30:00,50.0,27.7,30.23,North,0,0.0,0.0,42,0.00,,,0.00,WUHU216HW,2013-02-02 06:30:00,
2013-02-01 22:35:00,50.0,27.7,30.23,North,0,0.0,0.0,42,0.00,,,0.00,WUHU216HW,2013-02-02 06:35:00,
2013-02-01 23:00:00,52.2,22.4,30.23,North,0,0.0,0.0,31,0.00,,,0.00,WUHU216HW,2013-02-02 07:00:00,
2013-02-01 23:05:00,52.2,22.4,30.23,North,0,0.0,0.0,31,0.00,,,0.00,WUHU216HW,2013-02-02 07:05:00,
2013-02-01 23:30:00,52.0,22.2,30.23,North,0,0.0,0.0,31,0.00,,,0.00,WUHU216HW,2013-02-02 07:30:00,
2013-02-01 23:35:00,52.0,22.2,30.23,North,0,0.0,0.0,31,0.00,,,0.00,WUHU216HW,2013-02-02 07:35:00,